createdAt,value
2019-03-15T00:00:46.291Z,15.77
2019-03-15T00:01:46.286Z,15.68
2019-03-15T00:02:46.279Z,15.68
2019-03-15T00:03:46.269Z,16.44
2019-03-15T00:04:46.265Z,16.06
2019-03-15T00:05:46.257Z,15.96
2019-03-15T00:06:46.250Z,15.68
2019-03-15T00:07:46.244Z,15.01
2019-03-15T00:08:46.237Z,14.63
2019-03-15T00:09:46.232Z,14.34
2019-03-15T00:10:46.226Z,14.54
2019-03-15T00:11:46.217Z,14.35
2019-03-15T00:12:46.950Z,14.53
2019-03-15T00:13:46.204Z,14.91
2019-03-15T00:14:46.196Z,14.43
2019-03-15T00:15:46.191Z,14.43
2019-03-15T00:16:46.189Z,14.63
2019-03-15T00:17:46.177Z,14.62
2019-03-15T00:18:46.977Z,15.67
2019-03-15T00:19:46.162Z,15.77
2019-03-15T00:20:46.159Z,15.67
2019-03-15T00:21:46.150Z,16.44
2019-03-15T00:22:46.143Z,16.43
2019-03-15T00:23:46.137Z,16.25
2019-03-15T00:24:46.131Z,15.77
2019-03-15T00:25:46.134Z,15.39
2019-03-15T00:26:46.273Z,15.86
2019-03-15T00:27:46.111Z,16.44
2019-03-15T00:28:46.104Z,15.96
2019-03-15T00:29:46.098Z,15.48
2019-03-15T00:30:46.091Z,14.91
2019-03-15T00:31:46.194Z,14.53
2019-03-15T00:32:46.077Z,13.96
2019-03-15T00:33:46.071Z,13.68
2019-03-15T00:34:46.064Z,13.01
2019-03-15T00:35:46.058Z,12.82
2019-03-15T00:36:46.092Z,12.63
2019-03-15T00:37:46.045Z,11.40
2019-03-15T00:38:46.038Z,11.49
2019-03-15T00:39:46.034Z,11.02
2019-03-15T00:40:46.027Z,11.30
2019-03-15T00:41:46.100Z,11.02
2019-03-15T00:42:46.012Z,10.92
2019-03-15T00:43:49.072Z,9.97
2019-03-15T00:44:45.998Z,9.78
2019-03-15T00:45:45.991Z,9.59
2019-03-15T00:46:45.987Z,9.69
2019-03-15T00:47:45.978Z,8.92
2019-03-15T00:48:45.972Z,8.83
2019-03-15T00:49:46.668Z,8.92
2019-03-15T00:50:45.958Z,9.02
2019-03-15T00:51:45.951Z,10.35
2019-03-15T00:52:45.945Z,11.87
2019-03-15T00:53:45.939Z,13.20
2019-03-15T00:54:45.931Z,14.25
2019-03-15T00:55:45.925Z,14.53
2019-03-15T00:56:45.919Z,14.34
2019-03-15T00:57:45.913Z,13.77
2019-03-15T00:58:45.906Z,13.48
2019-03-15T00:59:45.899Z,13.01
2019-03-15T01:00:45.893Z,12.63
2019-03-15T01:01:45.885Z,12.44
2019-03-15T01:02:45.881Z,12.54
2019-03-15T01:03:45.873Z,13.96
2019-03-15T01:04:45.867Z,14.43
2019-03-15T01:05:45.860Z,15.48
2019-03-15T01:06:45.853Z,16.33
2019-03-15T01:07:45.847Z,16.25
2019-03-15T01:08:45.839Z,16.53
2019-03-15T01:09:45.833Z,16.35
2019-03-15T01:10:45.828Z,16.24
2019-03-15T01:11:45.857Z,16.14
2019-03-15T01:12:45.813Z,15.77
2019-03-15T01:13:45.806Z,15.20
2019-03-15T01:14:45.800Z,15.39
2019-03-15T01:15:45.793Z,15.10
2019-03-15T01:16:45.788Z,15.48
2019-03-15T01:17:45.781Z,15.58
2019-03-15T01:18:45.774Z,16.63
2019-03-15T01:19:45.768Z,16.81
2019-03-15T01:20:45.763Z,17.39
2019-03-15T01:21:45.757Z,17.76
2019-03-15T01:22:45.747Z,16.81
2019-03-15T01:23:45.741Z,16.43
2019-03-15T01:24:45.735Z,17.47
2019-03-15T01:25:45.729Z,21.19
2019-03-15T01:26:45.721Z,22.14
2019-03-15T01:27:45.770Z,22.71
2019-03-15T01:28:45.709Z,22.52
2019-03-15T01:29:45.702Z,23.75
2019-03-15T01:30:45.694Z,23.66
2019-03-15T01:31:45.688Z,23.85
2019-03-15T01:32:45.683Z,23.28
2019-03-15T01:33:45.675Z,24.23
2019-03-15T01:34:45.668Z,24.61
2019-03-15T01:35:45.664Z,24.42
2019-03-15T01:36:45.657Z,23.75
2019-03-15T01:37:45.649Z,23.94
2019-03-15T01:38:45.642Z,23.75
2019-03-15T01:39:45.635Z,23.66
2019-03-15T01:40:48.496Z,23.75
2019-03-15T01:41:45.623Z,22.80
2019-03-15T01:42:45.616Z,22.61
2019-03-15T01:43:45.609Z,22.80
2019-03-15T01:44:45.606Z,23.47
2019-03-15T01:45:45.600Z,24.42
2019-03-15T01:46:45.590Z,23.85
2019-03-15T01:47:45.584Z,24.04
2019-03-15T01:48:45.577Z,24.52
2019-03-15T01:49:45.582Z,24.42
2019-03-15T01:50:45.566Z,24.80
2019-03-15T01:51:45.557Z,24.71
2019-03-15T01:52:45.551Z,25.37
2019-03-15T01:53:45.546Z,24.71
2019-03-15T01:54:45.539Z,25.37
2019-03-15T01:55:45.533Z,25.94
2019-03-15T01:56:45.531Z,24.90
2019-03-15T01:57:45.520Z,24.61
2019-03-15T01:58:45.514Z,24.99
2019-03-15T01:59:45.506Z,24.80
2019-03-15T02:00:45.523Z,24.90
2019-03-15T02:01:45.494Z,25.37
2019-03-15T02:02:45.489Z,24.71
2019-03-15T02:03:45.485Z,24.90
2019-03-15T02:04:45.473Z,24.80
2019-03-15T02:05:45.468Z,24.90
2019-03-15T02:06:45.469Z,24.71
2019-03-15T02:07:45.454Z,23.66
2019-03-15T02:08:45.448Z,23.38
2019-03-15T02:09:45.442Z,23.00
2019-03-15T02:10:45.434Z,22.61
2019-03-15T02:11:45.428Z,22.33
2019-03-15T02:12:45.421Z,21.75
2019-03-15T02:13:45.416Z,23.28
2019-03-15T02:14:45.413Z,23.85
2019-03-15T02:15:45.402Z,23.75
2019-03-15T02:16:45.396Z,22.42
2019-03-15T02:17:45.391Z,23.00
2019-03-15T02:18:45.382Z,22.90
2019-03-15T02:19:45.379Z,21.57
2019-03-15T02:20:45.370Z,20.70
2019-03-15T02:21:45.363Z,20.05
2019-03-15T02:22:45.358Z,20.04
2019-03-15T02:23:45.351Z,19.95
2019-03-15T02:24:45.344Z,19.67
2019-03-15T02:25:45.340Z,17.96
2019-03-15T02:26:45.336Z,19.57
2019-03-15T02:27:45.325Z,19.67
2019-03-15T02:28:45.367Z,19.09
2019-03-15T02:29:45.313Z,20.05
2019-03-15T02:30:45.310Z,19.95
2019-03-15T02:31:45.297Z,18.90
2019-03-15T02:32:45.300Z,18.53
2019-03-15T02:33:45.297Z,17.57
2019-03-15T02:34:45.280Z,16.91
2019-03-15T02:35:47.001Z,16.35
2019-03-15T02:36:45.272Z,15.77
2019-03-15T02:37:45.290Z,15.86
2019-03-15T02:38:45.258Z,15.86
2019-03-15T02:39:46.108Z,16.62
2019-03-15T02:40:45.246Z,15.77
2019-03-15T02:41:45.236Z,15.58
2019-03-15T02:42:45.414Z,15.29
2019-03-15T02:43:45.863Z,16.52
2019-03-15T02:44:45.214Z,15.86
2019-03-15T02:45:45.258Z,15.48
2019-03-15T02:46:45.213Z,15.29
2019-03-15T02:47:46.342Z,15.20
2019-03-15T02:48:45.190Z,15.00
2019-03-15T02:49:45.187Z,15.39
2019-03-15T02:50:45.175Z,15.48
2019-03-15T02:51:45.168Z,15.87
2019-03-15T02:52:45.173Z,16.52
2019-03-15T02:53:45.157Z,16.15
2019-03-15T02:54:45.160Z,15.77
2019-03-15T02:55:45.143Z,15.68
2019-03-15T02:56:45.140Z,17.96
2019-03-15T02:57:45.135Z,18.43
2019-03-15T02:58:45.124Z,19.67
2019-03-15T02:59:45.117Z,18.91
2019-03-15T03:00:45.110Z,18.91
2019-03-15T03:01:45.105Z,19.86
2019-03-15T03:02:45.096Z,19.20
2019-03-15T03:03:45.091Z,18.34
2019-03-15T03:04:45.083Z,20.05
2019-03-15T03:05:45.079Z,20.81
2019-03-15T03:06:45.071Z,20.62
2019-03-15T03:07:45.066Z,20.90
2019-03-15T03:08:45.057Z,21.09
2019-03-15T03:09:45.069Z,21.19
2019-03-15T03:10:45.049Z,20.81
2019-03-15T03:11:45.038Z,21.28
2019-03-15T03:12:45.033Z,21.19
2019-03-15T03:13:45.030Z,20.14
2019-03-15T03:14:45.023Z,20.05
2019-03-15T03:15:45.016Z,18.72
2019-03-15T03:16:46.090Z,19.57
2019-03-15T03:17:44.999Z,18.62
2019-03-15T03:18:44.995Z,18.71
2019-03-15T03:19:44.987Z,19.37
2019-03-15T03:20:44.984Z,18.72
2019-03-15T03:21:44.980Z,19.57
2019-03-15T03:22:44.967Z,18.91
2019-03-15T03:23:44.962Z,19.48
2019-03-15T03:24:44.956Z,18.43
2019-03-15T03:25:44.973Z,18.81
2019-03-15T03:26:44.943Z,18.34
2019-03-15T03:27:44.933Z,17.86
2019-03-15T03:28:44.937Z,18.62
2019-03-15T03:29:44.926Z,18.62
2019-03-15T03:30:46.651Z,19.10
2019-03-15T03:31:45.590Z,19.48
2019-03-15T03:32:45.016Z,20.05
2019-03-15T03:33:44.896Z,20.53
2019-03-15T03:34:44.898Z,20.72
2019-03-15T03:35:44.897Z,20.72
2019-03-15T03:36:44.875Z,20.72
2019-03-15T03:37:45.316Z,21.19
2019-03-15T03:38:44.862Z,20.90
2019-03-15T03:39:44.855Z,21.00
2019-03-15T03:40:44.848Z,20.05
2019-03-15T03:41:44.849Z,19.76
2019-03-15T03:42:44.835Z,18.81
2019-03-15T03:43:45.118Z,17.86
2019-03-15T03:44:44.823Z,17.58
2019-03-15T03:45:44.816Z,16.63
2019-03-15T03:46:44.809Z,16.63
2019-03-15T03:47:44.803Z,17.10
2019-03-15T03:48:44.797Z,16.91
2019-03-15T03:49:44.791Z,16.53
2019-03-15T03:50:44.783Z,15.87
2019-03-15T03:51:44.778Z,16.63
2019-03-15T03:52:44.772Z,15.77
2019-03-15T03:53:44.764Z,15.39
2019-03-15T03:54:44.758Z,14.82
2019-03-15T03:55:44.753Z,15.48
2019-03-15T03:56:44.746Z,13.96
2019-03-15T03:57:44.739Z,13.96
2019-03-15T03:58:44.734Z,13.58
2019-03-15T03:59:44.725Z,13.29
2019-03-15T04:00:44.718Z,13.29
2019-03-15T04:01:44.713Z,13.39
2019-03-15T04:02:44.704Z,13.29
2019-03-15T04:03:44.699Z,13.48
2019-03-15T04:04:44.693Z,12.82
2019-03-15T04:05:44.691Z,13.10
2019-03-15T04:06:44.682Z,13.39
2019-03-15T04:07:44.673Z,13.58
2019-03-15T04:08:44.666Z,13.39
2019-03-15T04:09:44.660Z,13.68
2019-03-15T04:10:44.653Z,13.96
2019-03-15T04:11:54.908Z,13.20
2019-03-15T04:12:44.640Z,13.39
2019-03-15T04:13:44.634Z,12.82
2019-03-15T04:14:44.629Z,13.58
2019-03-15T04:15:44.621Z,13.68
2019-03-15T04:16:44.615Z,13.39
2019-03-15T04:17:44.611Z,12.73
2019-03-15T04:18:44.603Z,12.82
2019-03-15T04:19:44.596Z,12.54
2019-03-15T04:20:44.590Z,12.35
2019-03-15T04:21:44.683Z,12.44
2019-03-15T04:22:44.576Z,11.68
2019-03-15T04:23:44.571Z,12.16
2019-03-15T04:24:44.565Z,11.87
2019-03-15T04:25:44.557Z,11.68
2019-03-15T04:26:44.550Z,11.78
2019-03-15T04:27:44.545Z,11.77
2019-03-15T04:28:44.542Z,11.21
2019-03-15T04:29:44.533Z,11.02
2019-03-15T04:30:44.525Z,10.54
2019-03-15T04:31:44.528Z,10.45
2019-03-15T04:32:44.515Z,10.74
2019-03-15T04:33:44.506Z,10.83
2019-03-15T04:34:44.505Z,10.73
2019-03-15T04:35:44.493Z,9.88
2019-03-15T04:36:44.486Z,10.55
2019-03-15T04:37:44.483Z,10.74
2019-03-15T04:38:44.477Z,9.50
2019-03-15T04:39:44.476Z,10.64
2019-03-15T04:40:44.463Z,10.16
2019-03-15T04:41:44.454Z,10.83
2019-03-15T04:42:44.447Z,10.64
2019-03-15T04:43:44.441Z,10.93
2019-03-15T04:44:44.435Z,10.36
2019-03-15T04:45:44.429Z,10.55
2019-03-15T04:46:44.422Z,9.59
2019-03-15T04:47:44.443Z,10.17
2019-03-15T04:48:44.409Z,9.78
2019-03-15T04:49:44.411Z,9.41
2019-03-15T04:50:44.400Z,8.84
2019-03-15T04:51:44.389Z,8.84
2019-03-15T04:52:44.383Z,9.69
2019-03-15T04:53:44.377Z,8.93
2019-03-15T04:54:44.370Z,8.74
2019-03-15T04:55:44.365Z,7.70
2019-03-15T04:56:44.359Z,7.03
2019-03-15T04:57:44.359Z,5.89
2019-03-15T04:58:44.344Z,5.13
2019-03-15T04:59:44.339Z,4.84
2019-03-15T05:00:44.333Z,4.46
2019-03-15T05:01:44.329Z,4.46
2019-03-15T05:02:44.329Z,3.99
2019-03-15T05:03:44.313Z,3.52
2019-03-15T05:04:44.309Z,3.61
2019-03-15T05:05:44.301Z,3.89
2019-03-15T05:06:44.296Z,3.70
2019-03-15T05:07:44.288Z,2.37
2019-03-15T05:08:44.283Z,2.94
2019-03-15T05:09:44.276Z,2.85
2019-03-15T05:10:44.269Z,2.66
2019-03-15T05:11:44.262Z,2.09
2019-03-15T05:12:44.259Z,1.52
2019-03-15T05:13:44.251Z,1.52
2019-03-15T05:14:44.246Z,1.23
2019-03-15T05:15:44.238Z,1.99
2019-03-15T05:16:44.236Z,1.99
2019-03-15T05:17:44.227Z,2.19
2019-03-15T05:18:44.221Z,2.28
2019-03-15T05:19:44.212Z,1.71
2019-03-15T05:20:44.207Z,1.99
2019-03-15T05:21:44.208Z,2.09
2019-03-15T05:22:44.191Z,1.90
2019-03-15T05:23:44.186Z,1.61
2019-03-15T05:24:44.179Z,1.23
2019-03-15T05:25:44.173Z,0.95
2019-03-15T05:26:44.167Z,0.85
2019-03-15T05:27:44.161Z,1.04
2019-03-15T05:28:44.154Z,0.19
2019-03-15T05:29:44.148Z,0.19
2019-03-15T05:30:44.142Z,0.00
2019-03-15T05:31:44.134Z,0.00
2019-03-15T05:32:44.154Z,0.00
2019-03-15T05:33:44.123Z,0.00
2019-03-15T05:34:44.117Z,0.00
2019-03-15T05:35:44.114Z,0.00
2019-03-15T05:36:44.103Z,0.00
2019-03-15T05:37:44.099Z,0.00
2019-03-15T05:38:44.090Z,0.00
2019-03-15T05:39:44.083Z,0.00
2019-03-15T05:40:44.082Z,0.00
2019-03-15T05:41:44.071Z,0.00
2019-03-15T05:42:44.065Z,0.00
2019-03-15T05:43:44.059Z,0.00
2019-03-15T05:44:44.052Z,0.00
2019-03-15T05:45:44.048Z,0.38
2019-03-15T05:46:44.040Z,0.38
2019-03-15T05:47:44.034Z,0.76
2019-03-15T05:48:44.025Z,0.28
2019-03-15T05:49:44.021Z,0.85
2019-03-15T05:50:44.014Z,1.52
2019-03-15T05:51:44.009Z,1.23
2019-03-15T05:52:44.002Z,1.14
2019-03-15T05:53:43.995Z,0.57
2019-03-15T05:54:43.987Z,0.19
2019-03-15T05:55:43.982Z,1.04
2019-03-15T05:56:43.978Z,0.28
2019-03-15T05:57:43.978Z,1.14
2019-03-15T05:58:43.962Z,1.04
2019-03-15T05:59:43.957Z,0.76
2019-03-15T06:00:43.950Z,1.14
2019-03-15T06:01:43.946Z,1.04
2019-03-15T06:02:43.939Z,1.71
2019-03-15T06:03:48.780Z,1.99
2019-03-15T06:04:43.925Z,1.61
2019-03-15T06:05:43.918Z,1.52
2019-03-15T06:06:43.912Z,1.71
2019-03-15T06:07:43.904Z,0.85
2019-03-15T06:08:43.900Z,1.04
2019-03-15T06:09:43.894Z,1.52
2019-03-15T06:10:43.886Z,1.14
2019-03-15T06:11:43.880Z,1.80
2019-03-15T06:12:43.874Z,1.90
2019-03-15T06:13:43.871Z,1.32
2019-03-15T06:14:46.749Z,1.04
2019-03-15T06:15:43.856Z,1.32
2019-03-15T06:16:43.852Z,1.14
2019-03-15T06:17:43.842Z,0.66
2019-03-15T06:18:43.836Z,0.85
2019-03-15T06:19:43.974Z,0.85
2019-03-15T06:20:43.823Z,0.19
2019-03-15T06:21:43.818Z,0.00
2019-03-15T06:22:43.812Z,0.00
2019-03-15T06:23:43.813Z,0.00
2019-03-15T06:24:43.801Z,0.00
2019-03-15T06:25:43.795Z,0.00
2019-03-15T06:26:43.785Z,0.19
2019-03-15T06:27:43.784Z,0.00
2019-03-15T06:28:43.773Z,0.00
2019-03-15T06:29:43.769Z,0.00
2019-03-15T06:30:43.762Z,0.00
2019-03-15T06:31:43.755Z,0.19
2019-03-15T06:32:43.753Z,0.28
2019-03-15T06:33:43.743Z,0.00
2019-03-15T06:34:43.736Z,0.00
2019-03-15T06:35:43.729Z,0.00
2019-03-15T06:36:43.722Z,0.00
2019-03-15T06:37:43.718Z,0.00
2019-03-15T06:38:43.710Z,0.00
2019-03-15T06:39:43.703Z,0.00
2019-03-15T06:40:43.698Z,0.00
2019-03-15T06:41:43.692Z,0.00
2019-03-15T06:42:43.685Z,0.00
2019-03-15T06:43:43.679Z,0.00
2019-03-15T06:44:56.868Z,0.00
2019-03-15T06:45:43.667Z,0.00
2019-03-15T06:46:43.662Z,0.00
2019-03-15T06:47:43.655Z,0.00
2019-03-15T06:48:45.090Z,0.00
2019-03-15T06:49:43.642Z,0.00
2019-03-15T06:50:43.635Z,0.00
2019-03-15T06:51:43.630Z,0.00
2019-03-15T06:52:43.622Z,0.00
2019-03-15T06:53:43.617Z,0.00
2019-03-15T06:54:43.610Z,0.00
2019-03-15T06:55:43.605Z,0.00
2019-03-15T06:56:43.600Z,0.00
2019-03-15T06:57:43.593Z,0.00
2019-03-15T06:58:43.585Z,0.00
2019-03-15T06:59:43.582Z,0.00
2019-03-15T07:00:43.573Z,0.00
2019-03-15T07:01:43.572Z,0.00
2019-03-15T07:02:43.561Z,0.00
2019-03-15T07:03:43.558Z,0.00
2019-03-15T07:04:43.549Z,0.00
2019-03-15T07:05:43.542Z,0.00
2019-03-15T07:06:43.535Z,0.00
2019-03-15T07:07:43.594Z,0.00
2019-03-15T07:08:43.523Z,0.00
2019-03-15T07:09:43.518Z,0.00
2019-03-15T07:10:44.353Z,0.00
2019-03-15T07:11:43.507Z,0.00
2019-03-15T07:12:43.500Z,0.00
2019-03-15T07:13:43.496Z,0.00
2019-03-15T07:14:43.495Z,0.00
2019-03-15T07:15:44.489Z,0.00
2019-03-15T07:16:43.479Z,0.00
2019-03-15T07:17:43.471Z,0.00
2019-03-15T07:18:43.465Z,0.00
2019-03-15T07:19:43.459Z,0.00
2019-03-15T07:20:43.454Z,0.00
2019-03-15T07:21:46.653Z,0.00
2019-03-15T07:22:43.444Z,0.00
2019-03-15T07:23:43.432Z,0.00
2019-03-15T07:24:43.941Z,0.00
2019-03-15T07:25:43.420Z,0.00
2019-03-15T07:26:43.897Z,0.00
2019-03-15T07:27:43.409Z,0.00
2019-03-15T07:28:43.402Z,0.00
2019-03-15T07:29:43.396Z,0.00
2019-03-15T07:30:43.388Z,0.00
2019-03-15T07:31:43.388Z,0.00
2019-03-15T07:32:43.377Z,0.00
2019-03-15T07:33:43.373Z,0.00
2019-03-15T07:34:43.364Z,0.00
2019-03-15T07:35:43.358Z,0.00
2019-03-15T07:36:43.353Z,0.00
2019-03-15T07:37:45.474Z,0.00
2019-03-15T07:38:43.341Z,0.00
2019-03-15T07:39:43.400Z,0.00
2019-03-15T07:40:43.329Z,0.00
2019-03-15T07:41:43.322Z,0.00
2019-03-15T07:42:43.318Z,0.00
2019-03-15T07:43:43.310Z,0.00
2019-03-15T07:44:43.305Z,0.00
2019-03-15T07:45:43.302Z,0.00
2019-03-15T07:46:43.292Z,0.00
2019-03-15T07:47:43.288Z,0.00
2019-03-15T07:48:43.280Z,0.00
2019-03-15T07:49:43.274Z,0.00
2019-03-15T07:50:43.269Z,0.00
2019-03-15T07:51:43.266Z,0.00
2019-03-15T07:52:43.257Z,0.00
2019-03-15T07:53:43.251Z,0.00
2019-03-15T07:54:43.244Z,0.00
2019-03-15T07:55:43.238Z,0.00
2019-03-15T07:56:43.233Z,0.00
2019-03-15T07:57:43.261Z,0.00
2019-03-15T07:58:43.220Z,0.00
2019-03-15T07:59:43.215Z,0.00
2019-03-15T08:00:43.209Z,0.00
2019-03-15T08:01:43.204Z,0.00
2019-03-15T08:02:43.202Z,0.00
2019-03-15T08:03:43.191Z,0.00
2019-03-15T08:04:43.187Z,0.00
2019-03-15T08:05:43.185Z,0.00
2019-03-15T08:06:43.176Z,0.00
2019-03-15T08:07:45.684Z,0.00
2019-03-15T08:08:43.201Z,0.00
2019-03-15T08:09:43.153Z,0.00
2019-03-15T08:10:43.148Z,0.00
2019-03-15T08:11:43.144Z,0.00
2019-03-15T08:12:43.138Z,0.00
2019-03-15T08:13:43.133Z,0.00
2019-03-15T08:14:43.123Z,0.00
2019-03-15T08:15:43.118Z,0.00
2019-03-15T08:16:43.116Z,0.00
2019-03-15T08:17:43.107Z,0.00
2019-03-15T08:18:43.113Z,0.00
2019-03-15T08:19:43.094Z,0.00
2019-03-15T08:20:43.088Z,0.00
2019-03-15T08:21:43.083Z,0.00
2019-03-15T08:22:43.076Z,0.00
2019-03-15T08:23:43.071Z,0.00
2019-03-15T08:24:51.413Z,0.00
2019-03-15T08:25:43.057Z,0.00
2019-03-15T08:26:43.055Z,0.00
2019-03-15T08:27:43.050Z,0.00
2019-03-15T08:28:43.041Z,0.00
2019-03-15T08:29:43.035Z,0.00
2019-03-15T08:30:43.027Z,0.00
2019-03-15T08:31:43.021Z,0.00
2019-03-15T08:32:43.937Z,0.00
2019-03-15T08:33:43.010Z,0.00
2019-03-15T08:34:43.003Z,0.00
2019-03-15T08:35:42.998Z,0.00
2019-03-15T08:36:42.995Z,0.00
2019-03-15T08:37:42.985Z,0.00
2019-03-15T08:38:47.712Z,0.00
2019-03-15T08:39:42.974Z,0.00
2019-03-15T08:40:42.968Z,0.00
2019-03-15T08:41:42.971Z,0.00
2019-03-15T08:42:42.955Z,0.00
2019-03-15T08:43:45.867Z,0.00
2019-03-15T08:44:42.945Z,0.00
2019-03-15T08:45:42.938Z,0.00
2019-03-15T08:46:42.932Z,0.00
2019-03-15T08:47:42.926Z,0.00
2019-03-15T08:48:42.920Z,0.00
2019-03-15T08:49:42.915Z,0.00
2019-03-15T08:50:42.918Z,0.00
2019-03-15T08:51:42.902Z,0.00
2019-03-15T08:52:42.896Z,0.00
2019-03-15T08:53:42.891Z,0.00
2019-03-15T08:54:42.886Z,0.00
2019-03-15T08:55:42.880Z,0.00
2019-03-15T08:56:42.874Z,0.00
2019-03-15T08:57:42.869Z,0.00
2019-03-15T08:58:42.862Z,0.00
2019-03-15T08:59:53.758Z,0.00
2019-03-15T09:00:42.848Z,0.00
2019-03-15T09:01:42.843Z,0.00
2019-03-15T09:02:42.840Z,0.00
2019-03-15T09:03:42.830Z,0.00
2019-03-15T09:04:42.829Z,0.00
2019-03-15T09:05:42.819Z,0.00
2019-03-15T09:06:42.813Z,0.00
2019-03-15T09:07:42.811Z,0.00
2019-03-15T09:08:42.800Z,0.00
2019-03-15T09:09:42.796Z,0.00
2019-03-15T09:10:42.788Z,0.00
2019-03-15T09:11:42.783Z,0.00
2019-03-15T09:12:42.777Z,0.00
2019-03-15T09:13:42.776Z,0.00
2019-03-15T09:14:42.765Z,0.00
2019-03-15T09:15:42.760Z,0.00
2019-03-15T09:16:42.759Z,0.00
2019-03-15T09:17:42.748Z,0.00
2019-03-15T09:18:42.740Z,0.00
2019-03-15T09:19:42.736Z,0.00
2019-03-15T09:20:42.730Z,0.00
2019-03-15T09:21:42.725Z,0.00
2019-03-15T09:22:42.717Z,0.00
2019-03-15T09:23:42.712Z,0.00
2019-03-15T09:24:42.706Z,0.00
2019-03-15T09:25:42.700Z,0.00
2019-03-15T09:26:42.693Z,0.00
2019-03-15T09:27:45.290Z,0.00
2019-03-15T09:28:42.685Z,0.00
2019-03-15T09:29:42.675Z,0.00
2019-03-15T09:30:42.669Z,0.00
2019-03-15T09:31:47.766Z,0.00
2019-03-15T09:32:42.658Z,0.00
2019-03-15T09:33:42.654Z,0.00
2019-03-15T09:34:42.645Z,0.00
2019-03-15T09:35:42.641Z,0.00
2019-03-15T09:36:50.083Z,0.00
2019-03-15T09:37:42.632Z,0.00
2019-03-15T09:38:42.622Z,0.00
2019-03-15T09:39:42.617Z,0.00
2019-03-15T09:40:42.614Z,0.00
2019-03-15T09:41:42.606Z,0.00
2019-03-15T09:42:42.601Z,0.00
2019-03-15T09:43:45.183Z,0.00
2019-03-15T09:44:42.592Z,0.00
2019-03-15T09:45:42.584Z,0.00
2019-03-15T09:46:42.577Z,0.00
2019-03-15T09:47:42.570Z,0.00
2019-03-15T09:48:43.880Z,0.00
2019-03-15T09:49:42.560Z,0.00
2019-03-15T09:50:51.300Z,0.00
2019-03-15T09:51:42.554Z,0.00
2019-03-15T09:52:42.544Z,0.00
2019-03-15T09:53:42.537Z,0.00
2019-03-15T09:54:42.531Z,0.00
2019-03-15T09:55:42.526Z,0.00
2019-03-15T09:56:42.521Z,0.00
2019-03-15T09:57:42.520Z,0.00
2019-03-15T09:58:42.508Z,0.00
2019-03-15T09:59:42.502Z,0.00
2019-03-15T10:00:42.497Z,0.00
2019-03-15T10:01:42.492Z,0.00
2019-03-15T10:02:42.489Z,0.00
2019-03-15T10:03:42.480Z,0.00
2019-03-15T10:04:42.477Z,0.00
2019-03-15T10:05:42.470Z,0.00
2019-03-15T10:06:42.463Z,0.00
2019-03-15T10:07:43.691Z,0.00
2019-03-15T10:08:42.455Z,0.00
2019-03-15T10:09:46.054Z,0.00
2019-03-15T10:10:42.440Z,0.00
2019-03-15T10:11:42.437Z,0.00
2019-03-15T10:12:42.431Z,0.00
2019-03-15T10:13:42.425Z,0.00
2019-03-15T10:14:42.423Z,0.00
2019-03-15T10:15:42.481Z,0.00
2019-03-15T10:16:42.409Z,0.00
2019-03-15T10:17:42.414Z,0.00
2019-03-15T10:18:42.397Z,0.00
2019-03-15T10:19:42.394Z,0.00
2019-03-15T10:20:45.381Z,0.00
2019-03-15T10:21:42.384Z,0.00
2019-03-15T10:22:42.376Z,0.00
2019-03-15T10:23:42.370Z,0.00
2019-03-15T10:24:42.366Z,0.00
2019-03-15T10:25:47.029Z,0.00
2019-03-15T10:26:42.355Z,0.00
2019-03-15T10:27:42.350Z,0.00
2019-03-15T10:28:42.343Z,0.00
2019-03-15T10:29:42.340Z,0.00
2019-03-15T10:30:42.335Z,0.00
2019-03-15T10:31:42.327Z,0.00
2019-03-15T10:32:42.322Z,0.00
2019-03-15T10:33:50.185Z,0.00
2019-03-15T10:34:42.311Z,0.00
2019-03-15T10:35:42.351Z,0.00
2019-03-15T10:36:42.328Z,0.00
2019-03-15T10:37:42.296Z,0.00
2019-03-15T10:38:42.293Z,0.00
2019-03-15T10:39:42.284Z,0.00
2019-03-15T10:40:42.280Z,0.00
2019-03-15T10:41:42.275Z,0.00
2019-03-15T10:42:42.269Z,0.00
2019-03-15T10:43:42.263Z,0.00
2019-03-15T10:44:42.260Z,0.00
2019-03-15T10:45:42.254Z,0.00
2019-03-15T10:46:42.248Z,0.00
2019-03-15T10:47:42.614Z,0.00
2019-03-15T10:48:42.238Z,0.00
2019-03-15T10:49:42.236Z,0.00
2019-03-15T10:50:42.228Z,0.00
2019-03-15T10:51:42.222Z,0.00
2019-03-15T10:52:42.218Z,0.00
2019-03-15T10:53:42.215Z,0.00
2019-03-15T10:54:42.207Z,0.00
2019-03-15T10:55:42.202Z,0.00
2019-03-15T10:56:42.197Z,0.00
2019-03-15T10:57:42.192Z,0.00
2019-03-15T10:58:42.186Z,0.00
2019-03-15T10:59:42.181Z,0.00
2019-03-15T11:00:42.185Z,0.00
2019-03-15T11:01:42.171Z,0.00
2019-03-15T11:02:42.167Z,0.00
2019-03-15T11:03:42.160Z,0.00
2019-03-15T11:04:42.158Z,0.00
2019-03-15T11:05:42.151Z,0.00
2019-03-15T11:06:42.149Z,0.00
2019-03-15T11:07:42.145Z,0.00
2019-03-15T11:08:42.136Z,0.00
2019-03-15T11:09:42.134Z,0.00
2019-03-15T11:10:42.127Z,0.00
2019-03-15T11:11:42.126Z,0.00
2019-03-15T11:12:42.119Z,0.00
2019-03-15T11:13:42.114Z,0.00
2019-03-15T11:14:42.107Z,0.00
2019-03-15T11:15:42.103Z,0.00
2019-03-15T11:16:42.099Z,0.00
2019-03-15T11:17:42.095Z,0.00
2019-03-15T11:18:42.091Z,0.00
2019-03-15T11:19:42.085Z,0.00
2019-03-15T11:20:42.084Z,0.00
2019-03-15T11:21:42.077Z,0.00
2019-03-15T11:22:42.073Z,0.00
2019-03-15T11:23:42.069Z,0.00
2019-03-15T11:24:43.753Z,0.00
2019-03-15T11:25:42.059Z,0.00
2019-03-15T11:26:42.053Z,0.00
2019-03-15T11:27:42.061Z,0.00
2019-03-15T11:28:42.044Z,0.00
2019-03-15T11:29:42.041Z,0.00
2019-03-15T11:30:42.036Z,0.00
2019-03-15T11:31:42.032Z,0.00
2019-03-15T11:32:42.032Z,0.00
2019-03-15T11:33:42.067Z,0.00
2019-03-15T11:34:42.018Z,0.00
2019-03-15T11:35:42.015Z,0.00
2019-03-15T11:36:42.010Z,0.00
2019-03-15T11:37:42.005Z,0.00
2019-03-15T11:38:42.001Z,0.00
2019-03-15T11:39:41.997Z,0.00
2019-03-15T11:40:41.994Z,0.00
2019-03-15T11:41:41.990Z,0.00
2019-03-15T11:42:41.985Z,0.00
2019-03-15T11:43:41.983Z,3.34
2019-03-15T11:44:41.978Z,6.11
2019-03-15T11:45:41.976Z,10.98
2019-03-15T11:46:42.056Z,14.04
2019-03-15T11:48:01.333Z,13.28
2019-03-15T11:48:41.962Z,13.46
2019-03-15T11:49:41.961Z,10.79
2019-03-15T11:50:41.955Z,11.46
2019-03-15T11:51:42.636Z,11.74
2019-03-15T11:52:41.954Z,13.18
2019-03-15T11:53:41.944Z,11.84
2019-03-15T11:54:41.941Z,14.13
2019-03-15T11:55:41.936Z,15.56
2019-03-15T11:56:41.933Z,18.72
2019-03-15T11:57:41.933Z,21.58
2019-03-15T11:58:41.928Z,22.92
2019-03-15T11:59:41.924Z,21.11
2019-03-15T12:00:41.962Z,22.63
2019-03-15T12:01:41.919Z,23.89
2019-03-15T12:02:41.914Z,25.03
2019-03-15T12:03:52.457Z,26.46
2019-03-15T12:04:41.908Z,29.03
2019-03-15T12:05:41.905Z,29.41
2019-03-15T12:06:41.900Z,28.17
2019-03-15T12:07:41.897Z,29.13
2019-03-15T12:08:41.894Z,29.03
2019-03-15T12:09:41.892Z,25.50
2019-03-15T12:10:41.889Z,18.62
2019-03-15T12:11:41.888Z,8.97
2019-03-15T12:12:41.883Z,4.68
2019-03-15T12:13:41.879Z,0.00
2019-03-15T12:14:41.874Z,0.00
2019-03-15T12:15:41.873Z,0.00
2019-03-15T12:16:41.869Z,0.00
2019-03-15T12:17:41.867Z,0.00
2019-03-15T12:18:41.864Z,0.00
2019-03-15T12:19:41.858Z,0.00
2019-03-15T12:20:41.859Z,0.00
2019-03-15T12:21:41.853Z,0.00
2019-03-15T12:22:41.849Z,0.00
2019-03-15T12:23:41.846Z,0.00
2019-03-15T12:24:41.843Z,0.00
2019-03-15T12:25:41.841Z,0.00
2019-03-15T12:26:41.834Z,0.00
2019-03-15T12:27:41.838Z,0.00
2019-03-15T12:28:41.828Z,0.00
2019-03-15T12:29:41.824Z,0.00
2019-03-15T12:30:43.031Z,0.00
2019-03-15T12:31:41.817Z,0.00
2019-03-15T12:32:41.813Z,0.00
2019-03-15T12:33:41.811Z,0.00
2019-03-15T12:34:41.806Z,0.00
2019-03-15T12:35:41.802Z,0.00
2019-03-15T12:36:41.799Z,0.00
2019-03-15T12:37:41.796Z,0.57
2019-03-15T12:38:41.791Z,1.81
2019-03-15T12:39:41.789Z,1.90
2019-03-15T12:40:41.789Z,5.25
2019-03-15T12:41:41.780Z,6.68
2019-03-15T12:42:41.776Z,8.21
2019-03-15T12:43:41.773Z,8.69
2019-03-15T12:44:41.770Z,7.92
2019-03-15T12:45:41.766Z,9.06
2019-03-15T12:46:41.761Z,7.54
2019-03-15T12:47:41.758Z,6.59
2019-03-15T12:48:41.755Z,5.15
2019-03-15T12:49:41.750Z,4.77
2019-03-15T12:50:41.745Z,3.63
2019-03-15T12:51:41.743Z,3.24
2019-03-15T12:52:47.475Z,0.85
2019-03-15T12:53:41.737Z,2.10
2019-03-15T12:54:41.731Z,0.00
2019-03-15T12:55:41.728Z,0.00
2019-03-15T12:56:53.173Z,0.00
2019-03-15T12:57:41.722Z,0.00
2019-03-15T12:58:41.718Z,0.00
2019-03-15T12:59:41.716Z,0.00
2019-03-15T13:00:41.710Z,0.09
2019-03-15T13:01:41.708Z,2.10
2019-03-15T13:02:41.703Z,3.15
2019-03-15T13:03:41.699Z,4.96
2019-03-15T13:04:41.731Z,6.20
2019-03-15T13:05:41.691Z,4.86
2019-03-15T13:06:41.689Z,2.95
2019-03-15T13:07:41.684Z,1.72
2019-03-15T13:08:41.681Z,1.24